Time;durP1;ratioP1;P1;durP2;ratioP2;P2;SDS_P1;SDS_P2;PMS_P1;PMS_P2;Temp;Humidity;BMP_temperature;BMP_pressure;BME280_temperature;BME280_humidity;BME280_pressure;Samples;Min_cycle;Max_cycle;Signal;HPM_P1;HPM_P2
2022/08/10 00:01:55;;;;;;;13.43;1.63;;;;;;;24.73;67.58;99311.34;4832080;29;20096;-58
2022/08/10 00:04:26;;;;;;;12.73;1.83;;;;;;;24.68;67.75;99316.25;4832291;29;20201;-59
2022/08/10 00:06:56;;;;;;;7.13;1.70;;;;;;;24.77;67.65;99318.09;4832132;29;20054;-58
2022/08/10 00:09:29;;;;;;;7.07;1.47;;;;;;;24.84;67.64;99316.56;4832283;29;20120;-58
2022/08/10 00:11:59;;;;;;;10.30;1.80;;;;;;;24.86;66.32;99314.59;4832182;29;20074;-58
2022/08/10 00:14:30;;;;;;;13.23;2.33;;;;;;;24.83;65.34;99309.50;4831993;29;20069;-58
2022/08/10 00:17:01;;;;;;;16.10;1.77;;;;;;;24.89;66.17;99313.47;4829227;29;20047;-59
2022/08/10 00:19:31;;;;;;;13.17;1.87;;;;;;;24.99;66.40;99317.00;4827949;29;20062;-59
2022/08/10 00:22:22;;;;;;;8.87;1.70;;;;;;;25.03;65.35;99309.53;4831913;29;20046;-58
2022/08/10 00:24:56;;;;;;;10.27;2.10;;;;;;;25.06;65.87;99322.59;4831770;29;20340;-59
2022/08/10 00:27:28;;;;;;;11.43;1.90;;;;;;;25.10;65.10;99321.34;4830688;29;20061;-58
2022/08/10 00:30:19;;;;;;;17.13;2.20;;;;;;;25.16;66.23;99327.03;4827069;29;20058;-58
2022/08/10 00:32:52;;;;;;;23.97;2.53;;;;;;;25.17;64.89;99319.84;4833077;29;20213;-58
2022/08/10 00:35:23;;;;;;;11.83;1.80;;;;;;;25.26;65.74;99316.31;4830142;29;20043;-59
2022/08/10 00:37:53;;;;;;;6.00;2.00;;;;;;;25.45;65.22;99319.94;4831629;29;20050;-57
2022/08/10 00:40:28;;;;;;;51.07;4.20;;;;;;;25.48;65.06;99319.66;4830751;29;20085;-58
2022/08/10 00:43:07;;;;;;;17.33;2.43;;;;;;;25.59;64.45;99316.81;4830708;29;20069;-57
2022/08/10 00:45:38;;;;;;;12.73;1.90;;;;;;;25.73;64.44;99319.03;4831564;29;20127;-57
2022/08/10 00:48:08;;;;;;;13.63;2.23;;;;;;;25.78;63.95;99315.91;4831624;29;20570;-58
2022/08/10 00:50:39;;;;;;;12.93;1.90;;;;;;;25.86;63.52;99307.19;4831331;29;20119;-58
2022/08/10 00:53:09;;;;;;;17.80;2.27;;;;;;;25.95;63.44;99307.16;4831401;29;20392;-57
2022/08/10 00:55:42;;;;;;;11.03;1.93;;;;;;;26.11;63.18;99317.25;4831111;29;20070;-57
2022/08/10 00:58:33;;;;;;;14.87;1.90;;;;;;;26.12;62.64;99308.22;4828850;29;20075;-58
2022/08/10 01:01:04;;;;;;;3.83;1.43;;;;;;;26.22;61.86;99309.00;4831000;29;20089;-58
2022/08/10 01:03:39;;;;;;;7.07;1.70;;;;;;;26.25;61.18;99298.00;4829814;29;20134;-57
2022/08/10 01:06:39;;;;;;;9.97;1.47;;;;;;;26.04;61.25;99259.94;4831062;29;20235;-58
2022/08/10 01:09:17;;;;;;;13.63;1.83;;;;;;;26.40;60.78;99294.81;4830723;29;20289;-58
2022/08/10 01:11:56;;;;;;;190.85;14.18;;;;;;;26.50;61.00;99300.94;4831391;29;20061;-57
2022/08/10 01:14:53;;;;;;;16.57;2.30;;;;;;;26.64;59.56;99299.63;4831196;29;20180;-57
2022/08/10 01:17:30;;;;;;;11.57;1.90;;;;;;;26.58;59.80;99298.38;4831109;29;20229;-57
2022/08/10 01:20:27;;;;;;;8.40;1.53;;;;;;;26.62;59.37;99289.06;4831085;29;20269;-58
2022/08/10 01:23:32;;;;;;;18.63;1.97;;;;;;;26.73;58.53;99300.56;4829954;29;20132;-58
2022/08/10 01:26:35;;;;;;;16.30;2.20;;;;;;;26.82;57.97;99310.38;4829981;29;20080;-57
2022/08/10 01:29:46;;;;;;;8.17;1.40;;;;;;;26.94;57.98;99309.16;4827721;29;20058;-58
2022/08/10 01:32:25;;;;;;;5.07;1.60;;;;;;;26.88;58.16;99309.75;4831067;29;20074;-57
2022/08/10 01:35:05;;;;;;;8.07;1.37;;;;;;;26.79;56.60;99305.31;4830804;29;20054;-56
2022/08/10 01:37:44;;;;;;;8.87;1.40;;;;;;;26.88;55.97;99299.03;4830820;29;20227;-57
2022/08/10 01:40:26;;;;;;;6.07;1.23;;;;;;;26.75;56.10;99255.69;4831001;29;20097;-56
2022/08/10 01:43:03;;;;;;;46.57;4.40;;;;;;;26.78;55.23;99264.25;4830508;29;20350;-58
2022/08/10 01:45:43;;;;;;;8.33;1.20;;;;;;;26.92;55.81;99300.41;4830056;29;20128;-58
2022/08/10 01:48:30;;;;;;;13.57;1.70;;;;;;;26.18;54.96;99254.06;4830346;29;20505;-57
2022/08/10 01:51:15;;;;;;;3.90;1.00;;;;;;;25.99;55.21;99292.50;4830390;29;20312;-58
2022/08/10 01:53:50;;;;;;;11.80;1.90;;;;;;;25.69;56.35;99301.59;4830319;29;20061;-57
2022/08/10 01:56:25;;;;;;;86.60;6.23;;;;;;;25.83;57.98;99297.59;4830454;29;20113;-59
2022/08/10 01:58:59;;;;;;;28.10;3.13;;;;;;;25.92;58.89;99295.91;4829484;29;20064;-58
2022/08/10 02:01:35;;;;;;;9.97;1.40;;;;;;;25.79;58.33;99297.03;4830186;29;20544;-57
2022/08/10 02:04:11;;;;;;;2.97;1.17;;;;;;;25.69;57.95;99296.25;4830496;29;20058;-58
2022/08/10 02:06:46;;;;;;;1.90;1.13;;;;;;;25.82;58.42;99296.75;4830415;29;20054;-58
2022/08/10 02:09:24;;;;;;;4.23;1.20;;;;;;;26.04;57.51;99294.72;4830132;29;20064;-59
2022/08/10 02:11:57;;;;;;;24.92;2.03;;;;;;;25.81;56.39;99300.44;4830305;29;20050;-57
2022/08/10 02:14:43;;;;;;;9.60;1.50;;;;;;;25.68;57.08;99299.03;4830094;29;20130;-57
2022/08/10 02:17:20;;;;;;;9.57;1.10;;;;;;;25.54;56.41;99292.34;4830042;29;20615;-57
2022/08/10 02:20:16;;;;;;;13.57;1.67;;;;;;;25.37;57.04;99302.78;4830003;29;20061;-57
2022/08/10 02:22:50;;;;;;;11.67;1.47;;;;;;;25.92;58.57;99306.63;4830099;29;20129;-57
2022/08/10 02:25:24;;;;;;;7.00;1.40;;;;;;;26.14;58.02;99294.69;4830265;29;20327;-57
2022/08/10 02:28:18;;;;;;;6.70;1.50;;;;;;;26.01;57.20;99303.91;4829755;29;20289;-58
2022/08/10 02:31:01;;;;;;;8.53;1.40;;;;;;;26.04;58.09;99300.09;4829933;29;20280;-57
2022/08/10 02:33:38;;;;;;;9.93;1.47;;;;;;;25.90;58.43;99308.59;4830079;29;20062;-57
2022/08/10 02:36:30;;;;;;;8.83;1.80;;;;;;;25.80;58.59;99309.44;4829985;29;20069;-57
2022/08/10 02:39:04;;;;;;;29.17;2.57;;;;;;;25.63;57.34;99323.56;4829874;29;20210;-58
2022/08/10 02:41:41;;;;;;;5.43;1.30;;;;;;;25.39;57.44;99311.50;4829702;29;20319;-58
2022/08/10 02:44:41;;;;;;;9.87;1.47;;;;;;;25.40;59.12;99315.03;4829583;29;20056;-57
2022/08/10 02:47:37;;;;;;;11.33;1.83;;;;;;;25.62;58.46;99321.88;4829886;29;20451;-58
2022/08/10 02:50:27;;;;;;;4.70;1.40;;;;;;;25.58;59.19;99313.28;4829797;29;20052;-58
2022/08/10 02:53:07;;;;;;;5.10;1.40;;;;;;;25.92;58.12;99317.31;4829823;29;20129;-58
2022/08/10 02:56:01;;;;;;;12.47;2.13;;;;;;;25.89;57.39;99269.44;4845355;29;20364;-57
2022/08/10 02:58:38;;;;;;;9.07;2.33;;;;;;;25.99;56.42;99313.06;4847965;29;20061;-57
2022/08/10 03:01:12;;;;;;;11.57;1.30;;;;;;;26.17;56.07;99311.28;4847786;29;20058;-58
2022/08/10 03:03:48;;;;;;;6.93;1.33;;;;;;;26.42;55.39;99303.56;4847677;29;20395;-57
2022/08/10 03:06:26;;;;;;;5.40;1.10;;;;;;;26.80;55.44;99301.63;4835701;29;20300;-57
2022/08/10 03:08:59;;;;;;;5.38;1.08;;;;;;;27.03;54.63;99302.88;4826194;29;20211;-56
2022/08/10 03:11:33;;;;;;;10.80;1.37;;;;;;;27.16;53.84;99296.25;4840864;29;20371;-57
2022/08/10 03:14:26;;;;;;;22.13;1.60;;;;;;;27.25;51.44;99300.72;4848997;29;20053;-58
2022/08/10 03:16:58;;;;;;;7.93;1.20;;;;;;;27.42;52.83;99297.16;4851545;29;20069;-57
2022/08/10 03:19:30;;;;;;;3.40;1.10;;;;;;;27.50;51.79;99289.16;4851419;29;20050;-58
2022/08/10 03:22:23;;;;;;;7.00;1.30;;;;;;;27.76;53.16;99291.00;4834308;29;20311;-57
2022/08/10 03:24:55;;;;;;;5.53;1.53;;;;;;;27.92;52.58;99296.50;4833411;29;20062;-57
2022/08/10 03:27:27;;;;;;;7.50;1.37;;;;;;;28.08;52.66;99287.69;4833130;29;20121;-57
2022/08/10 03:29:58;;;;;;;7.40;1.70;;;;;;;28.04;52.82;99280.09;4832995;29;20058;-57
2022/08/10 03:32:50;;;;;;;9.10;1.33;;;;;;;28.15;52.91;99294.06;4832788;29;20061;-57
2022/08/10 03:35:23;;;;;;;10.80;1.50;;;;;;;28.24;52.92;99292.28;4832769;29;20062;-57
2022/08/10 03:37:55;;;;;;;8.47;1.37;;;;;;;28.14;52.69;99280.81;4832793;29;20054;-58
2022/08/10 03:40:30;;;;;;;3.70;1.47;;;;;;;27.89;52.38;99267.28;4832734;29;20121;-58
2022/08/10 03:43:18;;;;;;;6.10;1.57;;;;;;;28.08;53.01;99281.44;4832503;29;20062;-57
2022/08/10 03:45:54;;;;;;;7.97;1.77;;;;;;;28.21;54.58;99275.63;4832591;29;20340;-58
2022/08/10 03:48:26;;;;;;;6.53;1.40;;;;;;;28.26;52.83;99284.91;4832754;29;20115;-57
2022/08/10 03:51:15;;;;;;;7.65;1.00;;;;;;;28.28;52.88;99282.91;4832267;29;20062;-57
2022/08/10 03:53:49;;;;;;;20.90;1.80;;;;;;;28.33;49.13;99269.81;4832412;29;20156;-57
2022/08/10 03:56:37;;;;;;;13.27;2.30;;;;;;;28.25;42.40;99277.81;4814196;29;20062;-57
2022/08/10 03:59:10;;;;;;;13.87;1.40;;;;;;;28.08;40.79;99259.97;4814418;29;20090;-58
2022/08/10 04:01:42;;;;;;;53.73;3.27;;;;;;;28.26;41.34;99282.22;4814065;29;20065;-58
2022/08/10 04:04:33;;;;;;;9.83;1.20;;;;;;;28.35;41.06;99272.31;4813900;29;20262;-58
2022/08/10 04:07:04;;;;;;;9.63;1.40;;;;;;;28.39;41.23;99274.50;4813978;29;20082;-57
2022/08/10 04:09:38;;;;;;;8.10;0.80;;;;;;;28.37;37.42;99279.19;4813873;29;20118;-58
2022/08/10 04:12:25;;;;;;;5.03;0.70;;;;;;;28.21;38.60;99276.50;4814065;29;20070;-57
2022/08/10 04:14:55;;;;;;;52.50;3.70;;;;;;;28.15;38.08;99272.59;4814300;29;20063;-57
2022/08/10 04:17:27;;;;;;;7.13;0.83;;;;;;;28.20;38.92;99274.78;4814383;29;20101;-58
2022/08/10 04:20:20;;;;;;;11.37;2.00;;;;;;;28.19;38.40;99278.50;4812717;29;20051;-58
2022/08/10 04:22:53;;;;;;;40.27;2.63;;;;;;;28.19;39.68;99267.75;4806364;29;20390;-58
2022/08/10 04:25:28;;;;;;;5.00;1.00;;;;;;;28.28;39.64;99274.84;4813283;29;20058;-58
2022/08/10 04:27:59;;;;;;;2.43;0.90;;;;;;;28.35;40.56;99273.16;4814020;29;20061;-58
2022/08/10 04:30:35;;;;;;;4.53;0.83;;;;;;;28.42;40.28;99283.25;4813612;29;20086;-58
2022/08/10 04:33:08;;;;;;;2.73;0.63;;;;;;;28.40;38.67;99281.56;4813902;29;20098;-58
2022/08/10 04:35:40;;;;;;;2.03;0.57;;;;;;;28.35;38.23;99281.22;4813248;29;20094;-58
2022/08/10 04:38:13;;;;;;;6.83;0.67;;;;;;;28.36;38.80;99282.91;4813021;29;20276;-59
2022/08/10 04:40:47;;;;;;;4.27;0.90;;;;;;;28.30;39.31;99286.22;4811806;29;20114;-59
2022/08/10 04:43:17;;;;;;;4.50;0.73;;;;;;;28.35;39.66;99277.69;4812921;29;20348;-59
2022/08/10 04:45:48;;;;;;;21.90;1.90;;;;;;;28.35;39.65;99277.69;4813299;29;20086;-59
2022/08/10 04:48:23;;;;;;;8.57;1.10;;;;;;;28.36;39.82;99280.22;4813568;29;20055;-59
2022/08/10 04:51:15;;;;;;;2.10;0.70;;;;;;;28.29;39.83;99276.50;4812269;29;20068;-58
2022/08/10 04:53:50;;;;;;;28.43;2.20;;;;;;;28.32;40.22;99281.53;4813273;29;20062;-60
2022/08/10 04:56:37;;;;;;;27.43;2.67;;;;;;;28.19;39.74;99259.69;4813404;29;20319;-59
2022/08/10 04:59:09;;;;;;;22.70;2.53;;;;;;;28.27;37.17;99270.44;4813214;29;20046;-59
2022/08/10 05:01:41;;;;;;;15.57;1.57;;;;;;;28.30;38.11;99288.91;4813245;29;20063;-58
2022/08/10 05:04:32;;;;;;;5.03;0.80;;;;;;;28.36;39.98;99288.28;4813281;29;20143;-58
2022/08/10 05:07:12;;;;;;;7.60;0.97;;;;;;;28.37;39.71;99292.63;4813237;29;20066;-58
2022/08/10 05:09:48;;;;;;;121.60;8.80;;;;;;;28.32;40.08;99297.66;4812982;29;20371;-58
2022/08/10 05:12:38;;;;;;;54.70;4.38;;;;;;;28.30;39.08;99296.13;4812797;29;20122;-59
2022/08/10 05:15:10;;;;;;;9.00;0.80;;;;;;;28.05;39.12;99254.94;4812133;29;20070;-58
2022/08/10 05:17:43;;;;;;;4.90;0.90;;;;;;;28.21;38.04;99292.59;4812123;29;20170;-60
2022/08/10 05:20:34;;;;;;;3.83;0.93;;;;;;;28.15;38.90;99285.19;4813161;29;20089;-60
2022/08/10 05:23:05;;;;;;;31.00;2.93;;;;;;;28.20;40.02;99290.91;4812896;29;20055;-59
2022/08/10 05:25:35;;;;;;;9.30;1.03;;;;;;;28.18;39.58;99287.53;4811204;29;20093;-60
2022/08/10 05:28:08;;;;;;;20.53;1.60;;;;;;;28.15;39.52;99298.59;4812728;29;20062;-59
2022/08/10 05:30:39;;;;;;;9.17;0.70;;;;;;;28.20;39.19;99293.59;4812684;29;20054;-59
2022/08/10 05:33:10;;;;;;;4.90;0.87;;;;;;;28.18;38.46;99304.50;4812900;29;20082;-60
2022/08/10 05:35:40;;;;;;;5.80;0.90;;;;;;;28.14;37.98;99305.00;4812799;29;20063;-60
2022/08/10 05:38:29;;;;;;;25.17;1.83;;;;;;;28.07;39.23;99301.25;4811926;29;20066;-59
2022/08/10 05:41:00;;;;;;;2.97;0.67;;;;;;;28.02;37.06;99304.44;4811429;29;20062;-59
2022/08/10 05:43:32;;;;;;;4.80;1.10;;;;;;;28.01;38.96;99299.19;4812638;29;20065;-60
2022/08/10 05:46:03;;;;;;;5.53;1.10;;;;;;;27.99;39.86;99295.88;4812715;29;20066;-61
2022/08/10 05:48:49;;;;;;;14.90;0.87;;;;;;;28.05;39.61;99303.25;4806887;29;20058;-60
2022/08/10 05:51:30;;;;;;;9.50;0.93;;;;;;;28.09;41.10;99310.00;4808771;29;20073;-59
2022/08/10 05:54:01;;;;;;;18.00;1.90;;;;;;;28.04;38.62;99312.34;4810075;29;20066;-61
2022/08/10 05:56:38;;;;;;;8.63;1.00;;;;;;;27.95;38.87;99304.22;4826354;29;20062;-59
2022/08/10 05:59:30;;;;;;;27.10;2.77;;;;;;;27.90;39.79;99311.91;4825620;29;20261;-60
2022/08/10 06:02:25;;;;;;;3.70;0.90;;;;;;;27.87;40.29;99312.22;4825900;29;20050;-60
2022/08/10 06:05:07;;;;;;;33.87;2.47;;;;;;;27.85;39.59;99319.59;4826142;29;20065;-61
2022/08/10 06:07:41;;;;;;;10.40;1.30;;;;;;;27.85;39.64;99319.59;4825884;29;20338;-59
2022/08/10 06:10:14;;;;;;;3.17;1.17;;;;;;;27.77;38.51;99322.22;4825784;29;20129;-60
2022/08/10 06:16:06;;;;;;;15.07;1.80;;;;;;;27.71;37.92;99323.69;4826421;29;20092;-60
2022/08/10 06:18:37;;;;;;;6.53;0.90;;;;;;;27.76;37.96;99333.97;4826983;29;20054;-60
2022/08/10 06:21:08;;;;;;;7.07;1.53;;;;;;;27.70;39.34;99322.00;4826942;29;20084;-62
2022/08/10 06:23:40;;;;;;;9.90;1.30;;;;;;;27.72;38.95;99336.09;4826709;29;20069;-60
2022/08/10 06:26:11;;;;;;;7.27;1.33;;;;;;;27.69;39.59;99324.84;4825811;29;20050;-60
2022/08/10 06:28:49;;;;;;;1.07;0.80;;;;;;;27.63;39.07;99330.84;4826724;29;20074;-60
2022/08/10 06:31:37;;;;;;;11.20;1.20;;;;;;;27.60;38.53;99333.84;4826827;29;20062;-60
2022/08/10 06:34:23;;;;;;;7.57;1.03;;;;;;;27.50;39.05;99326.72;4826416;29;20867;-61
2022/08/10 06:36:54;;;;;;;7.30;1.13;;;;;;;27.47;38.28;99327.03;4826584;29;20085;-60
2022/08/10 06:39:26;;;;;;;45.20;3.73;;;;;;;27.45;39.34;99325.50;4826573;29;20057;-60
2022/08/10 06:42:16;;;;;;;43.77;3.60;;;;;;;27.36;38.74;99327.31;4826600;29;20058;-60
2022/08/10 06:44:54;;;;;;;12.10;1.70;;;;;;;27.28;38.86;99311.13;4826441;29;20065;-60
2022/08/10 06:47:30;;;;;;;14.87;1.77;;;;;;;27.29;38.70;99307.47;4826240;29;20046;-61
2022/08/10 06:50:04;;;;;;;13.10;1.30;;;;;;;27.41;39.48;99321.44;4826174;29;20088;-59
2022/08/10 06:52:38;;;;;;;47.10;3.50;;;;;;;27.40;39.94;99315.25;4826558;29;20046;-59
2022/08/10 06:55:13;;;;;;;46.53;3.77;;;;;;;27.38;39.70;99322.59;4826091;29;20054;-60
2022/08/10 06:57:48;;;;;;;35.42;3.13;;;;;;;27.46;41.01;99320.00;4826134;29;20058;-59
2022/08/10 07:00:32;;;;;;;30.60;3.17;;;;;;;27.46;40.48;99320.00;4826490;29;20216;-61
2022/08/10 07:03:10;;;;;;;8.03;1.30;;;;;;;27.47;41.66;99316.31;4826204;29;20089;-59
2022/08/10 07:05:46;;;;;;;16.13;1.80;;;;;;;27.37;40.50;99296.78;4826353;29;20058;-60
2022/08/10 07:08:21;;;;;;;27.67;2.13;;;;;;;27.44;40.22;99319.31;4826150;29;20066;-59
2022/08/10 07:10:54;;;;;;;14.57;3.00;;;;;;;27.42;40.07;99313.25;4826127;29;20086;-60
2022/08/10 07:13:25;;;;;;;11.33;2.27;;;;;;;27.39;40.23;99324.31;4825960;29;20077;-59
2022/08/10 07:16:18;;;;;;;48.80;3.43;;;;;;;27.34;41.17;99321.25;4826048;29;20054;-60
2022/08/10 07:18:50;;;;;;;13.50;1.80;;;;;;;27.30;41.84;99314.50;4826009;29;20065;-60
2022/08/10 07:21:23;;;;;;;8.73;1.70;;;;;;;27.32;41.57;99317.88;4825760;29;20058;-59
2022/08/10 07:23:55;;;;;;;4.83;1.40;;;;;;;27.09;40.85;99296.88;4825832;29;20081;-61
2022/08/10 07:26:31;;;;;;;8.90;1.30;;;;;;;27.02;41.24;99295.81;4826269;29;20066;-60
2022/08/10 07:29:03;;;;;;;7.00;1.30;;;;;;;27.20;41.40;99319.13;4825611;29;20074;-60
2022/08/10 07:31:34;;;;;;;14.23;2.10;;;;;;;27.19;41.34;99317.44;4826177;29;20092;-59
2022/08/10 07:34:29;;;;;;;3.63;1.20;;;;;;;27.14;42.03;99319.72;4825980;29;20336;-59
2022/08/10 07:37:04;;;;;;;18.40;1.87;;;;;;;27.15;42.16;99321.38;4825859;29;20126;-60
2022/08/10 07:39:39;;;;;;;14.20;1.63;;;;;;;27.14;41.99;99319.72;4826195;29;20117;-59
2022/08/10 07:42:31;;;;;;;12.87;1.90;;;;;;;27.14;43.01;99327.75;4825677;29;20058;-59
2022/08/10 07:45:04;;;;;;;24.83;2.67;;;;;;;27.07;42.82;99331.03;4825799;29;20058;-61
2022/08/10 07:47:38;;;;;;;51.93;5.30;;;;;;;26.99;42.70;99332.81;4826212;29;20166;-60
2022/08/10 07:50:26;;;;;;;16.92;1.85;;;;;;;26.94;43.65;99330.59;4825994;29;20066;-60
2022/08/10 07:53:06;;;;;;;23.17;2.40;;;;;;;26.83;44.33;99320.09;4825538;29;20328;-62
2022/08/10 07:55:41;;;;;;;7.83;1.30;;;;;;;26.83;43.23;99329.00;4825814;29;20155;-60
2022/08/10 07:58:37;;;;;;;16.47;1.80;;;;;;;26.84;44.94;99332.50;4825568;29;20056;-59
2022/08/10 08:01:16;;;;;;;30.13;2.87;;;;;;;26.83;45.70;99328.13;4827627;29;20062;-60
2022/08/10 08:03:49;;;;;;;11.83;2.50;;;;;;;26.82;45.59;99331.81;4828919;29;20131;-60
2022/08/10 08:06:44;;;;;;;17.80;2.03;;;;;;;26.80;46.20;99321.22;4828756;29;20050;-60
2022/08/10 08:09:15;;;;;;;9.53;1.40;;;;;;;26.74;45.41;99323.69;4828990;29;20117;-61
2022/08/10 08:11:48;;;;;;;13.77;1.37;;;;;;;26.60;45.49;99323.19;4828407;29;20276;-61
2022/08/10 08:14:22;;;;;;;10.30;1.10;;;;;;;26.53;46.32;99315.91;4828843;29;20057;-62
2022/08/10 08:16:54;;;;;;;38.87;2.73;;;;;;;26.45;47.20;99325.50;4828069;29;20272;-60
2022/08/10 08:19:25;;;;;;;7.40;1.23;;;;;;;26.38;46.24;99334.28;4828774;29;20105;-60
2022/08/10 08:22:16;;;;;;;11.30;1.20;;;;;;;26.29;46.90;99340.56;4828819;29;20192;-60
2022/08/10 08:25:08;;;;;;;35.03;3.70;;;;;;;26.22;47.20;99346.50;4828611;29;20057;-60
2022/08/10 08:27:47;;;;;;;27.30;2.40;;;;;;;26.11;47.42;99344.03;4828491;29;20089;-60
2022/08/10 08:30:18;;;;;;;40.60;3.00;;;;;;;25.99;46.97;99345.19;4828604;29;20065;-60
2022/08/10 08:33:21;;;;;;;9.20;1.25;;;;;;;25.83;46.90;99351.97;4828445;29;20320;-61
2022/08/10 08:36:14;;;;;;;11.20;1.57;;;;;;;25.71;47.18;99352.25;4828393;29;20110;-59
2022/08/10 08:38:48;;;;;;;11.83;2.00;;;;;;;25.70;47.48;99359.44;4828179;29;20045;-61
2022/08/10 08:41:43;;;;;;;15.30;2.37;;;;;;;25.63;47.53;99358.34;4828179;29;20069;-62
2022/08/10 08:44:28;;;;;;;65.03;5.20;;;;;;;25.52;48.22;99369.19;4828343;29;20073;-61
2022/08/10 08:47:28;;;;;;;4.90;1.20;;;;;;;25.44;48.65;99366.41;4827912;29;20121;-62
2022/08/10 08:50:32;;;;;;;22.13;2.90;;;;;;;25.37;48.94;99366.97;4828063;29;20399;-62
2022/08/10 08:53:19;;;;;;;8.07;1.67;;;;;;;25.27;48.60;99374.13;4828196;29;20367;-61
2022/08/10 08:56:01;;;;;;;7.85;1.70;;;;;;;25.17;48.81;99375.97;4827834;29;20131;-62
2022/08/10 08:58:52;;;;;;;7.83;1.27;;;;;;;24.93;49.35;99355.78;4828237;29;20245;-60
2022/08/10 09:01:37;;;;;;;9.15;1.77;;;;;;;25.04;49.41;99378.06;4827812;29;20243;-61
2022/08/10 09:04:29;;;;;;;8.40;1.47;;;;;;;24.96;49.72;99379.59;4828028;29;20601;-62
2022/08/10 09:07:23;;;;;;;42.83;3.37;;;;;;;24.85;50.21;99387.72;4827425;29;20466;-61
2022/08/10 09:10:26;;;;;;;39.83;3.23;;;;;;;24.63;50.38;99379.94;4827856;29;20129;-61
2022/08/10 09:13:09;;;;;;;13.40;1.60;;;;;;;24.66;51.29;99393.88;4827147;29;20079;-61
2022/08/10 09:15:47;;;;;;;10.63;1.70;;;;;;;24.59;51.25;99391.84;4827136;29;20114;-60
2022/08/10 09:18:24;;;;;;;8.95;1.77;;;;;;;24.51;52.33;99401.41;4827322;29;20050;-60
2022/08/10 09:21:04;;;;;;;139.03;10.67;;;;;;;24.35;53.20;99394.84;4827878;29;20058;-62
2022/08/10 09:23:45;;;;;;;21.33;2.00;;;;;;;24.08;53.29;99391.75;4827843;29;20084;-61
2022/08/10 09:26:48;;;;;;;16.13;1.93;;;;;;;23.98;53.43;99409.53;4827495;29;20062;-61
2022/08/10 09:29:26;;;;;;;20.07;2.10;;;;;;;23.80;53.46;99416.47;4827702;29;20058;-61
2022/08/10 09:31:58;;;;;;;13.55;2.08;;;;;;;;;;4827529;29;20122;-61
2022/08/10 09:35:02;;;;;;;20.97;2.37;;;;;;;23.29;54.73;99427.81;4827846;29;20316;-61
2022/08/10 09:38:02;;;;;;;19.20;1.80;;;;;;;22.99;55.26;99421.38;4827256;29;20050;-62
2022/08/10 09:40:43;;;;;;;9.93;1.77;;;;;;;22.76;55.75;99416.03;4827618;29;20114;-61
2022/08/10 09:43:43;;;;;;;;;;;;;;;22.64;56.33;99435.69;4828055;29;20066;-59
2022/08/10 09:46:26;;;;;;;7.63;1.40;;;;;;;22.49;56.85;99444.88;4827416;29;19928;-60
2022/08/10 09:49:06;;;;;;;25.60;2.90;;;;;;;22.35;57.74;99438.81;4827212;29;20319;-60
2022/08/10 09:51:49;;;;;;;18.90;2.90;;;;;;;22.29;58.51;99439.31;4827309;29;20065;-60
2022/08/10 09:54:36;;;;;;;9.03;2.00;;;;;;;22.21;59.02;99439.03;4827244;29;20326;-60
2022/08/10 09:57:18;;;;;;;11.10;2.37;;;;;;;22.09;58.97;99445.28;4827420;29;20412;-61
2022/08/10 10:00:11;;;;;;;13.17;2.27;;;;;;;21.98;59.12;99441.63;4827560;29;20058;-60
2022/08/10 10:02:58;;;;;;;40.87;3.60;;;;;;;21.91;59.26;99440.41;4826290;29;20061;-60
2022/08/10 10:05:37;;;;;;;14.43;2.23;;;;;;;21.82;59.45;99449.13;4827199;29;20065;-60
2022/08/10 10:08:27;;;;;;;18.47;2.00;;;;;;;21.72;59.47;99453.44;4827581;29;20675;-60
2022/08/10 10:11:15;;;;;;;22.90;2.20;;;;;;;21.66;59.51;99459.19;4827034;29;20302;-61
2022/08/10 10:14:06;;;;;;;9.35;1.90;;;;;;;21.52;59.34;99455.78;4827070;29;20373;-60
2022/08/10 10:16:59;;;;;;;26.60;2.60;;;;;;;21.53;59.80;99468.09;4827210;29;20066;-60
2022/08/10 10:19:55;;;;;;;8.87;1.30;;;;;;;21.46;59.64;99464.19;4826886;29;20343;-60
2022/08/10 10:22:45;;;;;;;7.83;1.37;;;;;;;21.44;59.78;99473.25;4827013;29;20362;-60
2022/08/10 10:25:24;;;;;;;3.20;1.37;;;;;;;21.40;60.26;99483.25;4826778;29;20311;-60
2022/08/10 10:28:19;;;;;;;;;;;;;;;21.35;60.10;99485.38;4827319;29;20298;-60
2022/08/10 10:31:05;;;;;;;55.30;4.70;;;;;;;21.28;60.31;99484.13;4826866;29;19980;-61
2022/08/10 10:33:55;;;;;;;17.90;2.47;;;;;;;21.21;60.41;99494.34;4826680;29;20319;-60
2022/08/10 10:36:29;;;;;;;25.43;2.67;;;;;;;21.15;60.57;99497.47;4826763;29;20305;-60
2022/08/10 10:39:03;;;;;;;11.87;1.70;;;;;;;21.10;60.56;99497.78;4826648;29;20302;-60
2022/08/10 10:41:41;;;;;;;83.20;6.30;;;;;;;21.07;60.63;99498.03;4826899;29;20344;-60
2022/08/10 10:44:42;;;;;;;16.50;2.15;;;;;;;21.01;60.89;99514.38;4826540;29;20279;-61
2022/08/10 10:47:30;;;;;;;7.57;1.70;;;;;;;20.96;60.98;99511.19;4826548;29;20050;-60
2022/08/10 10:50:12;;;;;;;6.20;1.50;;;;;;;20.87;61.35;99511.88;4826402;29;20568;-60
2022/08/10 10:52:57;;;;;;;25.53;2.23;;;;;;;20.77;61.80;99516.16;4826520;29;20386;-60
2022/08/10 10:55:34;;;;;;;20.73;1.87;;;;;;;20.71;62.14;99516.56;4826350;29;20310;-61
2022/08/10 10:58:31;;;;;;;19.90;2.33;;;;;;;20.51;63.36;99516.09;4826521;29;20342;-60
2022/08/10 11:01:08;;;;;;;13.93;2.20;;;;;;;20.36;63.73;99514.53;4826487;29;20330;-60
2022/08/10 11:03:53;;;;;;;12.03;1.97;;;;;;;20.07;64.56;99495.28;4826800;29;20292;-60
2022/08/10 11:06:38;;;;;;;18.47;2.07;;;;;;;20.08;65.14;99513.75;4826207;29;20294;-60
2022/08/10 11:09:18;;;;;;;15.27;2.13;;;;;;;19.99;65.96;99519.66;4826805;29;20276;-60
2022/08/10 11:12:19;;;;;;;8.73;2.17;;;;;;;19.96;66.00;99530.50;4826646;29;20292;-60
2022/08/10 11:15:04;;;;;;;7.43;1.80;;;;;;;19.85;66.62;99527.72;4826363;29;20299;-60
2022/08/10 11:17:41;;;;;;;7.33;1.80;;;;;;;19.81;67.41;99527.91;4826423;29;20302;-60
2022/08/10 11:20:15;;;;;;;12.00;2.20;;;;;;;19.82;67.29;99526.97;4826399;29;20414;-60
2022/08/10 11:22:53;;;;;;;6.67;1.83;;;;;;;19.78;68.47;99521.97;4826238;29;20292;-60
2022/08/10 11:25:31;;;;;;;3.20;1.63;;;;;;;19.73;68.28;99527.56;4826078;29;20288;-60
2022/08/10 11:28:09;;;;;;;6.70;1.47;;;;;;;19.67;68.19;99513.81;4825954;29;20296;-61
2022/08/10 11:30:50;;;;;;;3.40;1.60;;;;;;;19.63;67.98;99528.25;4826249;29;20439;-60
2022/08/10 11:33:38;;;;;;;3.33;1.90;;;;;;;19.57;68.92;99534.81;4826023;29;20319;-60
2022/08/10 11:36:36;;;;;;;8.80;1.60;;;;;;;19.52;69.40;99536.88;4828529;29;20298;-60
2022/08/10 11:39:11;;;;;;;5.13;1.55;;;;;;;19.45;70.03;99538.25;4829595;29;20299;-60
2022/08/10 11:41:59;;;;;;;6.10;1.70;;;;;;;19.43;70.23;99543.63;4829473;29;20077;-60
2022/08/10 11:44:48;;;;;;;16.00;1.87;;;;;;;19.31;70.48;99528.53;4829795;29;20585;-61
2022/08/10 11:47:22;;;;;;;5.47;1.70;;;;;;;19.26;71.29;99542.06;4828634;29;20398;-60
2022/08/10 11:49:58;;;;;;;11.33;4.90;;;;;;;19.14;71.70;99537.53;4829076;29;20294;-61
2022/08/10 11:52:39;;;;;;;7.60;3.47;;;;;;;19.05;72.46;99540.78;4829395;29;20295;-61
2022/08/10 11:55:19;;;;;;;9.23;3.30;;;;;;;18.96;72.73;99537.75;4829094;29;21104;-61
2022/08/10 11:57:56;;;;;;;13.73;4.63;;;;;;;18.81;73.59;99554.59;4828638;29;20310;-60
2022/08/10 12:00:30;;;;;;;16.07;4.20;;;;;;;18.61;74.18;99544.34;4829117;29;20302;-61
2022/08/10 12:03:06;;;;;;;17.20;4.63;;;;;;;18.49;74.74;99551.22;4829227;29;20310;-61
2022/08/10 12:05:41;;;;;;;17.70;5.10;;;;;;;18.35;75.56;99549.44;4829261;29;20299;-60
2022/08/10 12:08:27;;;;;;;23.47;4.70;;;;;;;18.21;76.06;99552.03;4828927;29;20408;-60
2022/08/10 12:11:23;;;;;;;29.03;4.33;;;;;;;18.13;76.60;99543.72;4827735;29;20307;-62
2022/08/10 12:14:07;;;;;;;16.90;3.93;;;;;;;18.08;76.91;99558.03;4828402;29;20315;-60
2022/08/10 12:16:56;;;;;;;;;;;;;;;17.99;77.42;99553.28;4802990;29;20366;-61
2022/08/10 12:19:38;;;;;;;16.10;4.60;;;;;;;17.93;77.86;99547.53;4828764;29;19952;-61
2022/08/10 12:22:35;;;;;;;16.27;3.93;;;;;;;17.93;78.24;99555.47;4827651;29;20530;-61
2022/08/10 12:25:11;;;;;;;15.70;3.37;;;;;;;17.92;78.33;99551.94;4826400;29;20311;-60
2022/08/10 12:28:11;;;;;;;16.03;3.70;;;;;;;17.84;78.56;99554.19;4827722;29;20371;-60
2022/08/10 12:30:52;;;;;;;16.67;4.20;;;;;;;17.84;79.01;99557.66;4828126;29;20584;-60
2022/08/10 12:33:27;;;;;;;12.10;4.67;;;;;;;17.78;79.50;99559.81;4827842;29;20311;-60
2022/08/10 12:36:03;;;;;;;12.97;3.93;;;;;;;17.61;79.87;99537.81;4828158;29;20326;-60